Oyster, Virginia
Current Conditions -  °F | °C
As of 5:15 PM on Sunday 23 Nov 2014 (Local Time) from KMFV Reporting Station
Light Rain Light Rain  
Wind Chill: 54°   Ceiling: 6000
Heat Index: 54°   Visibility: 10mi
Dew Point: 48°   Wind: 3mph
Humidity: 82%   Direction: 120°ESE
Pressure: 30.12"   Gusts: NA
Location:  37.29°N, 75.92°W
Report Text: KMFV 232215Z AUTO 12003KT 10SM -RA BKN060 BKN100 OVC120 12/09 A3012 RMK AO2
Loading
Personal Weather Stations






























Interactive Weather Map New forecast layout! Learn more

10-Day Weather Forecast

Advertisements
Track Severe Weather on mobile